Time;durP1;ratioP1;P1;durP2;ratioP2;P2;SDS_P1;SDS_P2;PMS_P1;PMS_P2;Temp;Humidity;BMP_temperature;BMP_pressure;BME280_temperature;BME280_humidity;BME280_pressure;Samples;Min_cycle;Max_cycle;Signal;HPM_P1;HPM_P2
2021/06/10 00:00:13;;;;;;;31.10;15.57;;;18.40;1.00;;;;;;5055107;28;20403;-76
2021/06/10 00:02:39;;;;;;;33.40;15.00;;;18.30;1.00;;;;;;5056162;28;20462;-76
2021/06/10 00:05:13;;;;;;;37.97;16.07;;;18.30;1.00;;;;;;5046686;28;20427;-76
2021/06/10 00:07:39;;;;;;;33.70;14.83;;;;;;;;;;5036531;28;20736;-76
2021/06/10 00:10:08;;;;;;;32.50;15.70;;;;;;;;;;5040433;28;20977;-76
2021/06/10 00:12:34;;;;;;;27.67;15.07;;;18.20;1.00;;;;;;5041202;28;20811;-76
2021/06/10 00:15:00;;;;;;;29.20;15.33;;;;;;;;;;5042569;28;20463;-76
2021/06/10 00:17:26;;;;;;;33.97;15.90;;;18.20;1.00;;;;;;5052622;28;20748;-76
2021/06/10 00:20:11;;;;;;;30.90;15.10;;;18.20;1.00;;;;;;5055791;28;20403;-76
2021/06/10 00:22:37;;;;;;;28.03;15.07;;;;;;;;;;5040915;28;20216;-76
2021/06/10 00:25:05;;;;;;;25.67;15.37;;;18.10;1.00;;;;;;5051385;28;20404;-76
2021/06/10 00:27:41;;;;;;;24.30;14.37;;;18.10;1.00;;;;;;5055991;28;20902;-76
2021/06/10 00:30:21;;;;;;;30.40;16.37;;;18.10;1.00;;;;;;5056046;28;20814;-76
2021/06/10 00:32:48;;;;;;;26.47;15.23;;;18.00;1.00;;;;;;5047264;28;20406;-74
2021/06/10 00:35:16;;;;;;;33.90;16.20;;;18.00;1.00;;;;;;5053904;28;20424;-74
2021/06/10 00:37:47;;;;;;;31.27;15.53;;;18.00;1.00;;;;;;5056285;28;20443;-74
2021/06/10 00:40:24;;;;;;;31.50;14.83;;;;;;;;;;5055104;28;20438;-74
2021/06/10 00:42:50;;;;;;;32.50;15.03;;;;;;;;;;5039943;28;20499;-74
2021/06/10 00:45:20;;;;;;;26.50;14.60;;;17.80;1.00;;;;;;5048774;28;20388;-74
2021/06/10 00:47:46;;;;;;;35.00;14.47;;;;;;;;;;5037093;28;20396;-76
2021/06/10 00:50:13;;;;;;;25.27;13.67;;;17.80;1.00;;;;;;5034769;28;20730;-76
2021/06/10 00:52:39;;;;;;;27.97;15.23;;;17.70;1.00;;;;;;5035575;28;20439;-76
2021/06/10 00:55:24;;;;;;;34.40;14.77;;;17.70;1.00;;;;;;5040236;28;20450;-76
2021/06/10 00:57:50;;;;;;;25.00;15.20;;;17.70;1.00;;;;;;5042209;28;20566;-76
2021/06/10 01:00:17;;;;;;;26.77;15.73;;;17.70;1.00;;;;;;5052582;28;20423;-76
2021/06/10 01:02:43;;;;;;;27.93;15.90;;;17.60;1.00;;;;;;5056031;28;20417;-74
2021/06/10 01:05:09;;;;;;;34.90;15.10;;;17.60;1.00;;;;;;5041569;28;20386;-74
2021/06/10 01:08:00;;;;;;;24.23;13.90;;;17.50;1.00;;;;;;5039805;28;20544;-74
2021/06/10 01:10:53;;;;;;;27.20;14.40;;;17.50;1.00;;;;;;5046809;28;20752;-74
2021/06/10 01:13:30;;;;;;;33.00;15.23;;;17.50;1.00;;;;;;5054160;28;20408;-74
2021/06/10 01:15:59;;;;;;;32.17;14.97;;;17.40;1.00;;;;;;5055034;28;20410;-74
2021/06/10 01:18:26;;;;;;;44.17;15.53;;;17.40;1.00;;;;;;5044735;28;20390;-74
2021/06/10 01:20:55;;;;;;;27.13;14.93;;;17.30;1.00;;;;;;5035071;28;20794;-74
2021/06/10 01:23:45;;;;;;;27.00;14.90;;;17.30;1.00;;;;;;5044931;28;20462;-74
2021/06/10 01:26:49;;;;;;;28.03;15.07;;;17.30;1.00;;;;;;5054526;28;20432;-74
2021/06/10 01:29:18;;;;;;;26.63;15.10;;;;;;;;;;5048412;28;20444;-74
2021/06/10 01:32:00;;;;;;;25.90;14.20;;;;;;;;;;5036745;28;20429;-74
2021/06/10 01:34:29;;;;;;;30.83;13.93;;;17.10;1.00;;;;;;5034643;28;20441;-75
2021/06/10 01:36:56;;;;;;;24.40;14.50;;;17.10;1.00;;;;;;5052038;28;20532;-74
2021/06/10 01:39:27;;;;;;;23.70;13.20;;;17.10;1.00;;;;;;5047444;28;20529;-74
2021/06/10 01:41:53;;;;;;;27.73;14.10;;;17.10;1.00;;;;;;5034311;28;20996;-74
2021/06/10 01:44:25;;;;;;;25.80;13.70;;;17.10;1.00;;;;;;5045635;28;20446;-74
2021/06/10 01:47:06;;;;;;;32.40;15.90;;;;;;;;;;5054959;28;20369;-77
2021/06/10 01:49:49;;;;;;;26.93;13.40;;;16.90;1.00;;;;;;5036436;28;20741;-76
2021/06/10 01:52:17;;;;;;;29.23;13.83;;;16.90;1.00;;;;;;5054017;28;20418;-76
2021/06/10 01:54:49;;;;;;;23.57;13.20;;;16.90;1.00;;;;;;5043347;28;20412;-77
2021/06/10 01:57:15;;;;;;;23.90;13.53;;;;;;;;;;5034950;28;20772;-76
2021/06/10 01:59:42;;;;;;;32.83;15.27;;;16.80;1.00;;;;;;5034684;28;20457;-76
2021/06/10 02:02:09;;;;;;;24.03;14.67;;;16.80;1.00;;;;;;5035622;28;20512;-74
2021/06/10 02:04:35;;;;;;;26.97;14.80;;;16.80;1.00;;;;;;5044049;28;20477;-74
2021/06/10 02:07:11;;;;;;;28.87;14.57;;;16.70;1.00;;;;;;5046572;28;20418;-74
2021/06/10 02:09:37;;;;;;;30.83;14.60;;;16.70;1.00;;;;;;5033999;28;20420;-74
2021/06/10 02:12:03;;;;;;;24.80;13.20;;;16.70;1.00;;;;;;5050900;28;20450;-74
2021/06/10 02:14:36;;;;;;;34.23;14.50;;;;;;;;;;5050891;28;20464;-74
2021/06/10 02:17:04;;;;;;;35.23;15.57;;;16.70;1.00;;;;;;5054011;28;20426;-74
2021/06/10 02:19:30;;;;;;;27.03;14.57;;;;;;;;;;5054076;28;20369;-74
2021/06/10 02:21:59;;;;;;;27.93;13.50;;;16.60;1.00;;;;;;5053463;28;20457;-74
2021/06/10 02:24:25;;;;;;;27.97;14.23;;;;;;;;;;5053752;28;20405;-74
2021/06/10 02:26:51;;;;;;;32.50;15.47;;;;;;;;;;5047694;28;20511;-74
2021/06/10 02:29:17;;;;;;;23.47;13.07;;;16.60;1.00;;;;;;5033836;28;20720;-74
2021/06/10 02:31:47;;;;;;;24.97;14.43;;;16.50;1.00;;;;;;5034386;28;20414;-76
2021/06/10 02:34:23;;;;;;;21.13;12.67;;;16.50;1.00;;;;;;5034437;28;20621;-76
2021/06/10 02:36:53;;;;;;;26.33;13.50;;;16.50;1.00;;;;;;5047342;28;20419;-76
2021/06/10 02:39:23;;;;;;;23.87;13.67;;;16.50;1.00;;;;;;5049907;28;20930;-76
2021/06/10 02:42:07;;;;;;;23.13;12.67;;;16.50;1.00;;;;;;5052107;28;20450;-76
2021/06/10 02:44:34;;;;;;;25.30;12.40;;;16.50;1.00;;;;;;5053211;28;20412;-76
2021/06/10 02:47:12;;;;;;;33.70;14.23;;;16.50;1.00;;;;;;5039732;28;20743;-76
2021/06/10 02:49:49;;;;;;;26.23;13.47;;;16.50;1.00;;;;;;5036302;28;20405;-77
2021/06/10 02:52:17;;;;;;;23.00;12.97;;;16.50;1.00;;;;;;5053895;28;20410;-76
2021/06/10 02:54:53;;;;;;;23.53;13.00;;;16.40;1.00;;;;;;5052381;28;20785;-76
2021/06/10 02:57:32;;;;;;;26.67;13.30;;;16.40;1.00;;;;;;5051733;28;20523;-76
2021/06/10 03:00:03;;;;;;;24.83;13.50;;;16.30;1.00;;;;;;5054508;28;20422;-76
2021/06/10 03:02:39;;;;;;;27.03;14.33;;;16.30;1.00;;;;;;5053670;28;20941;-77
2021/06/10 03:05:47;;;;;;;30.43;13.73;;;16.30;1.00;;;;;;5061707;28;20477;-76
2021/06/10 03:08:18;;;;;;;22.73;13.20;;;16.30;1.00;;;;;;5030778;28;20402;-76
2021/06/10 03:10:50;;;;;;;22.93;12.47;;;16.20;1.00;;;;;;5039326;28;20386;-76
2021/06/10 03:13:21;;;;;;;26.87;13.13;;;16.20;1.00;;;;;;5037620;28;20473;-76
2021/06/10 03:15:49;;;;;;;27.27;12.17;;;16.20;1.00;;;;;;5052299;28;20479;-76
2021/06/10 03:18:19;;;;;;;22.10;12.50;;;16.20;1.00;;;;;;5038271;28;20910;-76
2021/06/10 03:20:52;;;;;;;28.13;12.67;;;16.20;1.00;;;;;;5067144;28;20455;-76
2021/06/10 03:23:22;;;;;;;28.77;13.00;;;16.10;1.00;;;;;;5033068;28;20519;-76
2021/06/10 03:25:52;;;;;;;22.33;11.57;;;16.10;1.00;;;;;;5038896;28;20517;-77
2021/06/10 03:28:45;;;;;;;26.50;14.03;;;16.10;1.00;;;;;;5052786;28;20405;-76
2021/06/10 03:31:14;;;;;;;26.20;13.07;;;16.10;1.00;;;;;;5054139;28;20394;-77
2021/06/10 03:33:54;;;;;;;21.33;13.10;;;16.10;1.00;;;;;;5053001;28;20434;-76
2021/06/10 03:36:48;;;;;;;30.30;13.90;;;16.00;1.00;;;;;;5045848;28;20492;-77
2021/06/10 03:39:30;;;;;;;32.67;13.97;;;16.00;1.00;;;;;;5045050;28;20781;-76
2021/06/10 03:42:04;;;;;;;24.63;12.87;;;16.00;1.00;;;;;;5061146;28;20470;-76
2021/06/10 03:44:57;;;;;;;25.40;12.60;;;16.00;1.00;;;;;;5034019;28;20429;-76
2021/06/10 03:47:29;;;;;;;27.33;13.37;;;16.00;1.00;;;;;;5033191;28;20967;-76
2021/06/10 03:50:16;;;;;;;22.67;12.33;;;16.10;1.00;;;;;;5032906;28;20740;-76
2021/06/10 03:52:47;;;;;;;20.23;11.90;;;16.10;1.00;;;;;;5044721;28;20428;-76
2021/06/10 03:55:33;;;;;;;28.17;13.60;;;16.10;1.00;;;;;;5069386;28;20494;-76
2021/06/10 03:58:02;;;;;;;23.33;11.70;;;16.10;1.00;;;;;;5051475;28;20412;-76
2021/06/10 04:00:40;;;;;;;24.73;11.97;;;16.10;1.00;;;;;;5051854;28;20415;-76
2021/06/10 04:03:09;;;;;;;23.23;13.30;;;16.10;1.00;;;;;;5053600;28;20410;-76
2021/06/10 04:05:41;;;;;;;20.50;12.90;;;16.10;1.00;;;;;;5052670;28;20426;-76
2021/06/10 04:11:40;;;;;;;21.97;12.00;;;16.20;1.00;;;;;;5046284;28;20427;-81
2021/06/10 04:14:28;;;;;;;21.67;11.57;;;16.30;1.00;;;;;;5054221;28;20384;-80
2021/06/10 04:16:59;;;;;;;21.17;13.50;;;16.30;1.00;;;;;;5052199;28;20404;-80
2021/06/10 04:23:09;;;;;;;23.30;13.27;;;16.40;1.00;;;;;;5051116;28;20567;-76
2021/06/10 04:25:35;;;;;;;107.50;21.60;;;16.50;1.00;;;;;;5038985;28;20444;-76
2021/06/10 04:28:13;;;;;;;47.63;14.80;;;16.60;1.00;;;;;;5044556;28;20438;-76
2021/06/10 04:30:48;;;;;;;17.90;11.40;;;;;;;;;;5050173;28;20973;-76
2021/06/10 04:33:17;;;;;;;19.30;12.27;;;16.70;1.00;;;;;;5056114;28;20395;-76
2021/06/10 04:35:43;;;;;;;21.97;11.47;;;16.70;1.00;;;;;;5055527;28;20884;-76
2021/06/10 04:38:13;;;;;;;22.53;12.37;;;16.80;1.00;;;;;;5054728;28;20439;-76
2021/06/10 04:40:41;;;;;;;29.83;12.27;;;16.90;1.00;;;;;;5040364;28;20418;-76
2021/06/10 04:43:07;;;;;;;21.53;11.97;;;16.90;1.00;;;;;;5036213;28;20521;-76
2021/06/10 04:45:33;;;;;;;16.13;11.17;;;;;;;;;;5035302;28;20454;-77
2021/06/10 04:48:00;;;;;;;26.00;12.83;;;17.10;1.00;;;;;;5051692;28;20437;-77
2021/06/10 04:53:47;;;;;;;24.90;12.10;;;;;;;;;;5036083;28;20896;-81
2021/06/10 05:09:53;;;;;;;18.77;10.73;;;17.90;1.00;;;;;;5046334;28;20381;-79
2021/06/10 05:15:40;;;;;;;17.70;10.70;;;18.10;1.00;;;;;;5040696;28;20382;-79
2021/06/10 05:18:23;;;;;;;19.40;11.63;;;18.20;1.00;;;;;;5054903;28;20788;-83
2021/06/10 05:20:54;;;;;;;15.33;9.90;;;;;;;;;;5054392;28;20656;-79
2021/06/10 05:26:54;;;;;;;19.20;10.67;;;;;;;;;;5049899;28;20445;-79
2021/06/10 05:32:42;;;;;;;20.20;10.30;;;;;;;;;;5055138;28;20378;-80
2021/06/10 05:35:08;;;;;;;23.90;11.37;;;18.60;1.00;;;;;;5052570;28;20473;-82
2021/06/10 05:40:56;;;;;;;19.50;10.40;;;18.80;1.00;;;;;;5053926;28;20462;-79
2021/06/10 05:43:36;;;;;;;27.07;10.43;;;;;;;;;;5054653;28;20432;-79
2021/06/10 05:49:24;;;;;;;23.83;12.20;;;19.20;1.00;;;;;;5033977;28;20821;-79
2021/06/10 05:51:50;;;;;;;32.00;13.97;;;;;;;;;;5034273;28;20403;-79
2021/06/10 05:54:53;;;;;;;21.10;12.77;;;19.50;1.00;;;;;;5048807;28;20179;-79
2021/06/10 05:58:11;;;;;;;19.47;12.57;;;19.70;1.00;;;;;;5054454;28;20772;-79
2021/06/10 06:00:53;;;;;;;22.23;13.50;;;;;;;;;;5045330;28;20403;-79
2021/06/10 06:03:53;;;;;;;23.93;12.90;;;20.00;1.00;;;;;;5037945;28;20449;-79
2021/06/10 06:10:05;;;;;;;23.13;13.10;;;;;;;;;;5048371;28;20425;-79
2021/06/10 06:16:05;;;;;;;66.10;17.00;;;20.40;1.00;;;;;;5044546;28;20435;-79
2021/06/10 06:19:17;;;;;;;20.93;12.20;;;20.50;1.00;;;;;;5038120;28;20829;-79
2021/06/10 06:25:35;;;;;;;24.33;12.03;;;20.70;1.00;;;;;;5045789;28;20780;-75
2021/06/10 06:28:01;;;;;;;19.90;11.93;;;;;;;;;;5042521;28;20745;-75
2021/06/10 06:30:27;;;;;;;19.63;11.93;;;20.80;1.00;;;;;;5052224;28;20928;-75
2021/06/10 06:32:53;;;;;;;25.60;12.90;;;20.90;1.00;;;;;;5046069;28;20534;-75
2021/06/10 06:35:29;;;;;;;27.03;13.37;;;20.90;1.00;;;;;;5037399;28;20192;-75
2021/06/10 06:38:05;;;;;;;20.93;12.40;;;21.00;1.00;;;;;;5040971;28;20199;-75
2021/06/10 06:40:32;;;;;;;17.53;12.40;;;;;;;;;;5037381;28;20438;-75
2021/06/10 06:42:58;;;;;;;18.13;11.80;;;;;;;;;;5037021;28;20489;-75
2021/06/10 06:45:23;;;;;;;36.73;14.13;;;21.50;1.00;;;;;;5035556;28;20937;-76
2021/06/10 06:47:49;;;;;;;22.07;13.27;;;21.60;1.00;;;;;;5037015;28;20527;-75
2021/06/10 06:50:15;;;;;;;20.07;11.30;;;;;;;;;;5037997;28;20185;-75
2021/06/10 06:52:42;;;;;;;23.00;11.97;;;;;;;;;;5035540;28;20667;-76
2021/06/10 06:55:08;;;;;;;19.50;12.10;;;22.00;1.00;;;;;;5036681;28;20437;-75
2021/06/10 06:57:35;;;;;;;18.07;11.00;;;;;;;;;;5036410;28;20441;-75
2021/06/10 07:00:01;;;;;;;39.67;13.23;;;;;;;;;;5041859;28;20804;-75
2021/06/10 07:02:27;;;;;;;19.50;10.53;;;;;;;;;;5032633;28;20469;-75
2021/06/10 07:04:54;;;;;;;18.17;11.83;;;;;;;;;;5035117;28;20422;-75
2021/06/10 07:07:20;;;;;;;20.80;11.87;;;22.40;1.00;;;;;;5034163;28;20460;-75
2021/06/10 07:09:46;;;;;;;28.93;13.23;;;;;;;;;;5040428;28;20916;-75
2021/06/10 07:12:12;;;;;;;15.60;10.47;;;;;;;;;;5035748;28;20438;-75
2021/06/10 07:14:38;;;;;;;17.73;11.10;;;;;;;;;;5037392;28;20414;-76
2021/06/10 07:17:04;;;;;;;18.20;11.80;;;;;;;;;;5036763;28;20480;-75
2021/06/10 07:19:31;;;;;;;21.93;10.77;;;;;;;;;;5032194;28;20402;-75
2021/06/10 07:21:56;;;;;;;19.53;11.53;;;22.80;1.00;;;;;;5033913;28;20475;-75
2021/06/10 07:24:23;;;;;;;15.60;10.57;;;;;;;;;;5035322;28;20434;-75
2021/06/10 07:26:48;;;;;;;19.00;11.37;;;22.90;1.00;;;;;;5040942;28;20181;-75
2021/06/10 07:29:16;;;;;;;18.70;10.37;;;23.00;1.00;;;;;;5037907;28;20425;-75
2021/06/10 07:31:43;;;;;;;19.20;11.40;;;23.00;1.00;;;;;;5037115;28;20482;-75
2021/06/10 07:34:09;;;;;;;17.47;10.80;;;23.10;1.00;;;;;;5032912;28;20423;-75
2021/06/10 07:36:36;;;;;;;18.43;9.80;;;23.10;1.00;;;;;;5037960;28;20941;-75
2021/06/10 07:39:05;;;;;;;18.17;12.43;;;23.20;1.00;;;;;;5040435;28;20781;-75
2021/06/10 07:41:31;;;;;;;20.50;11.37;;;;;;;;;;5037605;28;20499;-75
2021/06/10 07:43:57;;;;;;;20.27;11.70;;;23.40;1.00;;;;;;5035324;28;20480;-75
2021/06/10 07:46:23;;;;;;;18.73;10.67;;;23.50;1.00;;;;;;5037852;28;20431;-75
2021/06/10 07:48:49;;;;;;;17.13;11.03;;;23.60;1.00;;;;;;5035449;28;20930;-75
2021/06/10 07:51:15;;;;;;;17.73;11.00;;;;;;;;;;5032460;28;20427;-75
2021/06/10 07:53:41;;;;;;;17.97;10.90;;;;;;;;;;5037015;28;20189;-75
2021/06/10 07:56:07;;;;;;;18.97;12.07;;;23.80;1.00;;;;;;5037018;28;20851;-75
2021/06/10 07:58:34;;;;;;;18.97;10.90;;;23.80;1.00;;;;;;5040759;28;20423;-75
2021/06/10 08:01:01;;;;;;;20.03;11.27;;;24.00;1.00;;;;;;5037537;28;20473;-75
2021/06/10 08:03:27;;;;;;;19.33;11.30;;;24.00;1.00;;;;;;5036051;28;20436;-75
2021/06/10 08:05:56;;;;;;;19.33;10.87;;;24.10;1.00;;;;;;5035858;28;20473;-76
2021/06/10 08:08:23;;;;;;;17.67;10.47;;;;;;;;;;5035933;28;20191;-75
2021/06/10 08:10:49;;;;;;;18.87;10.63;;;;;;;;;;5038375;28;20472;-75
2021/06/10 08:13:17;;;;;;;18.33;10.80;;;;;;;;;;5033543;28;20788;-75
2021/06/10 08:15:45;;;;;;;19.63;10.13;;;24.30;1.00;;;;;;5036137;28;20520;-75
2021/06/10 08:18:10;;;;;;;16.70;11.30;;;;;;;;;;5046998;28;20406;-76
2021/06/10 08:20:37;;;;;;;17.30;10.20;;;;;;;;;;5039704;28;20434;-75
2021/06/10 08:23:03;;;;;;;16.30;10.60;;;24.50;1.00;;;;;;5043463;28;20448;-75
2021/06/10 08:25:32;;;;;;;21.75;10.90;;;24.50;1.00;;;;;;5039156;28;20586;-76
2021/06/10 08:28:01;;;;;;;17.40;11.20;;;24.50;1.00;;;;;;5044955;28;20182;-75
2021/06/10 08:30:28;;;;;;;17.10;10.60;;;24.60;1.00;;;;;;5047565;28;20424;-76
2021/06/10 08:32:54;;;;;;;22.10;10.40;;;24.80;1.00;;;;;;5038665;28;20548;-76
2021/06/10 08:35:20;;;;;;;21.03;10.43;;;;;;;;;;5037797;28;20531;-76
2021/06/10 08:37:46;;;;;;;15.57;10.70;;;;;;;;;;5042882;28;20672;-76
2021/06/10 08:40:14;;;;;;;15.03;10.00;;;25.00;1.00;;;;;;5044980;28;20792;-75
2021/06/10 08:42:42;;;;;;;28.97;10.37;;;25.20;1.00;;;;;;5040503;28;20477;-75
2021/06/10 08:45:14;;;;;;;23.93;10.40;;;25.30;1.00;;;;;;5038625;28;23083;-75
2021/06/10 08:47:46;;;;;;;15.33;10.83;;;25.30;1.00;;;;;;5033669;28;20439;-75
2021/06/10 08:50:17;;;;;;;20.13;10.60;;;25.40;1.00;;;;;;5036986;28;20418;-75
2021/06/10 08:52:43;;;;;;;14.63;9.70;;;;;;;;;;5042286;28;20442;-75
2021/06/10 08:55:11;;;;;;;13.90;9.47;;;25.50;1.00;;;;;;5038745;28;20567;-75
2021/06/10 08:57:37;;;;;;;19.73;10.60;;;25.60;1.00;;;;;;5037835;28;20437;-75
2021/06/10 09:00:08;;;;;;;15.83;9.23;;;25.50;1.00;;;;;;5044384;28;20512;-75
2021/06/10 09:02:34;;;;;;;20.60;10.97;;;25.60;1.00;;;;;;5044642;28;21001;-76
2021/06/10 09:05:04;;;;;;;16.03;10.00;;;25.70;1.00;;;;;;5051684;28;20421;-76
2021/06/10 09:07:39;;;;;;;13.17;9.37;;;25.80;1.00;;;;;;5050429;28;20491;-76
2021/06/10 09:10:07;;;;;;;13.97;9.07;;;25.80;1.00;;;;;;5037475;28;20420;-75
2021/06/10 09:12:50;;;;;;;14.47;9.20;;;25.90;1.00;;;;;;5044928;28;20427;-75
2021/06/10 09:15:21;;;;;;;12.37;8.50;;;25.90;1.00;;;;;;5033120;28;20448;-75
2021/06/10 09:17:48;;;;;;;15.77;9.00;;;26.10;1.00;;;;;;5032231;28;20688;-75
2021/06/10 09:20:23;;;;;;;12.27;9.13;;;26.20;1.00;;;;;;5045870;28;20459;-75
2021/06/10 09:23:09;;;;;;;14.77;8.63;;;26.40;1.00;;;;;;5044826;28;20463;-74
2021/06/10 09:25:35;;;;;;;16.20;9.03;;;26.40;1.00;;;;;;5035373;28;20422;-75
2021/06/10 09:28:02;;;;;;;37.67;11.03;;;;;;;;;;5037282;28;20438;-75
2021/06/10 09:30:47;;;;;;;21.20;10.33;;;26.50;1.00;;;;;;5038260;28;20440;-75
2021/06/10 09:33:25;;;;;;;14.60;9.53;;;26.70;1.00;;;;;;5036375;28;20475;-77
2021/06/10 09:35:55;;;;;;;17.50;8.83;;;26.80;1.00;;;;;;5040114;28;20526;-78
2021/06/10 09:38:21;;;;;;;17.17;9.60;;;26.90;1.00;;;;;;5042678;28;20437;-77
2021/06/10 09:41:01;;;;;;;18.03;9.90;;;27.00;1.00;;;;;;5040122;28;20439;-78
2021/06/10 09:43:41;;;;;;;13.80;8.77;;;27.10;1.00;;;;;;5036764;28;20469;-77
2021/06/10 09:46:07;;;;;;;15.10;9.83;;;;;;;;;;5037498;28;20484;-77
2021/06/10 09:48:35;;;;;;;10.73;8.37;;;27.10;1.00;;;;;;5031870;28;20435;-77
2021/06/10 09:51:02;;;;;;;11.30;8.80;;;;;;;;;;5034522;28;20435;-77
2021/06/10 09:53:32;;;;;;;14.10;8.30;;;27.40;1.00;;;;;;5036880;28;20436;-77
2021/06/10 09:56:08;;;;;;;14.50;8.87;;;27.40;1.00;;;;;;5044276;28;20439;-77
2021/06/10 09:58:36;;;;;;;14.37;9.00;;;27.40;1.00;;;;;;5033937;28;20555;-77
2021/06/10 10:01:19;;;;;;;18.30;7.60;;;27.50;1.00;;;;;;5056965;28;20427;-77
2021/06/10 10:03:48;;;;;;;12.73;8.50;;;27.40;1.00;;;;;;5033071;28;20544;-77
2021/06/10 10:06:23;;;;;;;33.23;10.20;;;27.60;1.00;;;;;;5027600;28;20448;-77
2021/06/10 10:08:51;;;;;;;8.93;7.33;;;;;;;;;;5038589;28;20502;-77
2021/06/10 10:11:18;;;;;;;13.30;8.70;;;;;;;;;;5039960;28;20438;-77
2021/06/10 10:13:47;;;;;;;16.93;8.17;;;28.00;1.00;;;;;;5047275;28;20430;-77
2021/06/10 10:16:35;;;;;;;14.63;8.90;;;28.20;1.00;;;;;;5063950;28;20508;-78
2021/06/10 10:19:04;;;;;;;15.57;8.80;;;;;;;;;;5034571;28;20761;-77
2021/06/10 10:21:33;;;;;;;10.47;7.97;;;28.60;1.00;;;;;;5032920;28;20441;-78
2021/06/10 10:24:07;;;;;;;12.93;8.47;;;28.60;1.00;;;;;;5032603;28;20527;-77
2021/06/10 10:26:34;;;;;;;11.67;8.10;;;28.50;1.00;;;;;;5037732;28;20459;-77
2021/06/10 10:29:02;;;;;;;19.10;8.30;;;28.60;1.00;;;;;;5041078;28;20434;-77
2021/06/10 10:31:29;;;;;;;12.00;7.80;;;;;;;;;;5055010;28;20439;-77
2021/06/10 10:33:55;;;;;;;12.03;7.07;;;28.90;1.00;;;;;;5048846;28;20410;-77
2021/06/10 10:36:33;;;;;;;10.00;8.63;;;29.10;1.00;;;;;;5043343;28;20539;-77
2021/06/10 10:39:07;;;;;;;13.30;8.30;;;29.30;1.00;;;;;;5045324;28;20418;-77
2021/06/10 10:41:50;;;;;;;12.40;8.80;;;29.30;1.00;;;;;;5053454;28;20451;-78
2021/06/10 10:44:25;;;;;;;9.50;7.63;;;29.50;1.00;;;;;;5053345;28;20443;-77
2021/06/10 10:47:09;;;;;;;12.47;9.07;;;29.40;1.00;;;;;;5052215;28;20419;-77
2021/06/10 10:49:51;;;;;;;11.90;8.80;;;29.20;1.00;;;;;;5033972;28;20432;-77
2021/06/10 10:52:21;;;;;;;9.13;7.33;;;;;;;;;;5045665;28;20504;-78
2021/06/10 10:54:50;;;;;;;10.23;9.03;;;29.00;1.00;;;;;;5033373;28;20480;-78
2021/06/10 10:57:39;;;;;;;13.93;8.20;;;29.00;1.00;;;;;;5049392;28;20505;-78
2021/06/10 11:00:53;;;;;;;9.00;8.10;;;29.10;1.00;;;;;;5047539;28;20448;-77
2021/06/10 11:03:25;;;;;;;11.53;7.30;;;29.30;1.00;;;;;;5040245;28;20439;-78
2021/06/10 11:05:52;;;;;;;7.67;6.87;;;29.40;1.00;;;;;;5053448;28;20864;-77
2021/06/10 11:08:22;;;;;;;15.63;8.37;;;29.50;1.00;;;;;;5053017;28;20440;-77
2021/06/10 11:11:06;;;;;;;10.00;8.43;;;29.70;1.00;;;;;;5053429;28;20748;-77
2021/06/10 11:13:45;;;;;;;11.33;8.37;;;29.90;1.00;;;;;;5035455;28;20451;-78
2021/06/10 11:16:17;;;;;;;17.63;8.30;;;30.10;1.00;;;;;;5038657;28;20917;-77
2021/06/10 11:18:59;;;;;;;14.70;8.63;;;30.40;1.00;;;;;;5044179;28;20410;-77
2021/06/10 11:21:53;;;;;;;12.83;8.77;;;30.50;1.00;;;;;;5051920;28;20537;-77
2021/06/10 11:24:24;;;;;;;17.87;7.47;;;30.40;1.00;;;;;;5034290;28;20414;-77
2021/06/10 11:27:08;;;;;;;9.23;7.20;;;30.30;1.00;;;;;;5053633;28;20402;-78
2021/06/10 11:30:14;;;;;;;14.63;7.50;;;30.40;1.00;;;;;;5047244;28;20529;-78
2021/06/10 11:33:06;;;;;;;8.20;6.57;;;30.20;1.00;;;;;;5036547;28;20501;-77
2021/06/10 11:35:49;;;;;;;17.73;7.67;;;30.20;1.00;;;;;;5046363;28;20427;-77
2021/06/10 11:38:23;;;;;;;11.30;8.10;;;30.20;1.00;;;;;;5043716;28;20484;-77
2021/06/10 11:41:18;;;;;;;11.70;8.20;;;30.10;1.00;;;;;;5036917;28;20475;-76
2021/06/10 11:44:01;;;;;;;8.60;7.20;;;;;;;;;;5043064;28;20421;-77
2021/06/10 11:49:55;;;;;;;10.93;8.10;;;29.60;1.00;;;;;;5036279;28;20427;-78
2021/06/10 11:52:22;;;;;;;12.50;8.97;;;;;;;;;;5042220;28;20472;-77
2021/06/10 11:55:17;;;;;;;16.70;8.50;;;29.60;1.00;;;;;;5055586;28;20519;-77
2021/06/10 11:58:12;;;;;;;12.20;8.10;;;29.70;1.00;;;;;;5055413;28;20429;-77
2021/06/10 12:00:54;;;;;;;51.90;11.80;;;;;;;;;;5050196;28;20411;-77
2021/06/10 12:03:59;;;;;;;16.73;9.80;;;29.70;1.00;;;;;;5053605;28;20528;-77
2021/06/10 12:06:36;;;;;;;9.40;8.23;;;29.80;1.00;;;;;;5050279;28;20989;-77
2021/06/10 12:09:53;;;;;;;14.90;7.93;;;30.00;1.00;;;;;;5036465;28;21016;-77
2021/06/10 12:15:54;;;;;;;25.30;9.90;;;30.00;1.00;;;;;;5050518;28;20400;-78
2021/06/10 12:18:23;;;;;;;10.27;8.17;;;30.10;1.00;;;;;;5036813;28;20390;-77
2021/06/10 12:21:13;;;;;;;23.17;9.70;;;30.20;1.00;;;;;;5036565;28;20453;-76
2021/06/10 12:23:47;;;;;;;10.00;7.50;;;30.20;1.00;;;;;;5041008;28;20414;-75
2021/06/10 12:26:23;;;;;;;11.10;8.47;;;30.10;1.00;;;;;;5055598;28;20437;-75
2021/06/10 12:29:01;;;;;;;10.00;7.53;;;30.00;1.00;;;;;;5052094;28;20503;-75
2021/06/10 12:31:33;;;;;;;9.93;7.43;;;30.00;1.00;;;;;;5045129;28;20465;-75
2021/06/10 12:34:04;;;;;;;16.40;7.83;;;29.80;1.00;;;;;;5035733;28;20476;-76
2021/06/10 12:36:38;;;;;;;15.17;8.53;;;30.00;1.00;;;;;;5064398;28;20524;-77
2021/06/10 12:39:33;;;;;;;9.73;7.83;;;30.10;1.00;;;;;;5075994;28;20409;-77
2021/06/10 12:42:12;;;;;;;10.83;7.30;;;30.00;1.00;;;;;;5051777;28;20425;-76
2021/06/10 12:44:38;;;;;;;12.53;7.30;;;30.20;1.00;;;;;;5055307;28;20437;-75
2021/06/10 12:47:07;;;;;;;10.47;8.20;;;30.40;1.00;;;;;;5052307;28;20524;-74
2021/06/10 12:49:38;;;;;;;15.50;8.40;;;30.30;1.00;;;;;;5034991;28;20398;-73
2021/06/10 12:52:10;;;;;;;8.83;7.90;;;30.50;1.00;;;;;;5042541;28;20457;-74
2021/06/10 12:54:36;;;;;;;10.63;7.43;;;;;;;;;;5055495;28;20497;-74
2021/06/10 12:57:17;;;;;;;11.93;6.40;;;30.50;1.00;;;;;;5053855;28;20406;-75
2021/06/10 12:59:55;;;;;;;15.17;7.33;;;30.50;1.00;;;;;;5055647;28;20393;-75
2021/06/10 13:02:23;;;;;;;9.17;6.27;;;30.70;1.00;;;;;;5055251;28;20505;-75
2021/06/10 13:04:54;;;;;;;12.07;7.47;;;30.90;1.00;;;;;;5054812;28;20972;-75
2021/06/10 13:07:33;;;;;;;11.20;7.97;;;31.00;1.00;;;;;;5055573;28;20401;-76
2021/06/10 13:10:08;;;;;;;16.40;8.53;;;30.90;1.00;;;;;;5055140;28;20452;-76
2021/06/10 13:12:47;;;;;;;24.23;8.57;;;31.00;1.00;;;;;;5054776;28;20448;-74
2021/06/10 13:15:20;;;;;;;13.90;8.43;;;31.10;1.00;;;;;;5054753;28;20417;-74
2021/06/10 13:17:49;;;;;;;8.90;7.20;;;31.20;1.00;;;;;;5054919;28;21368;-74
2021/06/10 13:20:56;;;;;;;14.90;8.10;;;31.10;1.00;;;;;;5053400;28;20454;-74
2021/06/10 13:23:50;;;;;;;20.30;7.73;;;31.30;1.00;;;;;;5049987;28;20422;-73
2021/06/10 13:26:19;;;;;;;11.80;7.50;;;;;;;;;;5058525;28;20405;-73
2021/06/10 13:29:00;;;;;;;15.30;8.73;;;31.20;1.00;;;;;;5042202;28;20420;-74
2021/06/10 13:31:31;;;;;;;23.57;9.07;;;31.30;1.00;;;;;;5042901;28;20516;-79
2021/06/10 13:34:02;;;;;;;12.57;6.80;;;31.20;1.00;;;;;;5039967;28;20453;-73
2021/06/10 13:36:30;;;;;;;16.23;8.00;;;;;;;;;;5054254;28;20474;-73
2021/06/10 13:38:58;;;;;;;9.73;7.33;;;31.60;1.00;;;;;;5053161;28;20448;-74
2021/06/10 13:41:26;;;;;;;7.87;6.87;;;31.80;1.00;;;;;;5053692;28;20434;-74
2021/06/10 13:44:29;;;;;;;7.50;6.80;;;31.60;1.00;;;;;;5054323;28;20497;-78
2021/06/10 13:47:05;;;;;;;13.83;6.43;;;31.60;1.00;;;;;;5052657;28;20440;-80
2021/06/10 13:49:31;;;;;;;6.80;6.10;;;31.60;1.00;;;;;;5042225;28;20399;-79
2021/06/10 13:52:06;;;;;;;7.40;6.70;;;;;;;;;;5054404;28;20480;-77
2021/06/10 13:54:32;;;;;;;11.30;7.07;;;;;;;;;;5054294;28;20156;-75
2021/06/10 13:56:59;;;;;;;8.07;6.30;;;31.90;1.00;;;;;;5053664;28;20411;-76
2021/06/10 13:59:25;;;;;;;15.17;7.30;;;32.10;1.00;;;;;;5054265;28;20448;-76
2021/06/10 14:01:53;;;;;;;8.57;5.90;;;32.00;1.00;;;;;;5045929;28;20434;-76
2021/06/10 14:05:11;;;;;;;18.30;6.90;;;31.90;1.00;;;;;;5054470;28;20164;-77
2021/06/10 14:07:47;;;;;;;12.73;5.77;;;31.80;1.00;;;;;;5053820;28;20467;-76
2021/06/10 14:10:13;;;;;;;8.73;5.67;;;31.90;1.00;;;;;;5054091;28;20410;-76
2021/06/10 14:12:39;;;;;;;12.70;6.90;;;32.10;1.00;;;;;;5054111;28;20472;-74
2021/06/10 14:15:05;;;;;;;17.90;7.40;;;32.20;1.00;;;;;;5058222;28;20176;-74
2021/06/10 14:17:31;;;;;;;11.30;5.77;;;32.10;1.00;;;;;;5047353;28;20161;-74
2021/06/10 14:19:56;;;;;;;9.77;5.87;;;32.20;1.00;;;;;;5034014;28;20399;-74
2021/06/10 14:22:22;;;;;;;15.00;6.70;;;32.20;1.00;;;;;;5033725;28;20507;-74
2021/06/10 14:24:48;;;;;;;12.53;7.10;;;32.20;1.00;;;;;;5032988;28;20169;-74
2021/06/10 14:27:19;;;;;;;14.53;5.57;;;32.20;1.00;;;;;;5043828;28;20199;-74
2021/06/10 14:29:47;;;;;;;6.20;5.60;;;32.20;1.00;;;;;;5053230;28;20178;-74